createdAt,value
2019-03-19T00:02:10.986Z,86743.00
2019-03-19T00:04:40.765Z,86674.28
2019-03-19T00:07:10.658Z,86646.91
2019-03-19T00:09:40.526Z,86751.27
2019-03-19T00:12:10.281Z,86650.02
2019-03-19T00:14:40.137Z,86539.18
2019-03-19T00:17:09.858Z,86280.22
2019-03-19T00:19:39.615Z,86241.64
2019-03-19T00:22:09.452Z,85985.59
2019-03-19T00:24:39.223Z,85866.22
2019-03-19T00:27:08.967Z,85987.03
2019-03-19T00:29:38.800Z,85921.85
2019-03-19T00:32:08.571Z,85942.61
2019-03-19T00:34:38.369Z,85983.48
2019-03-19T00:37:08.185Z,86087.96
2019-03-19T00:39:38.089Z,86100.55
2019-03-19T00:42:07.876Z,86087.96
2019-03-19T00:44:37.606Z,85982.23
2019-03-19T00:47:07.815Z,86070.74
2019-03-19T00:49:37.576Z,86022.36
2019-03-19T00:52:07.378Z,86074.05
2019-03-19T00:54:37.150Z,85814.33
2019-03-19T00:57:06.965Z,85847.30
2019-03-19T00:59:36.837Z,85863.42
2019-03-19T01:02:06.762Z,85987.83
2019-03-19T01:04:36.507Z,85939.02
2019-03-19T01:07:06.285Z,85969.05
2019-03-19T01:09:36.039Z,85929.56
2019-03-19T01:12:05.809Z,85938.84
2019-03-19T01:14:35.586Z,85906.22
2019-03-19T01:17:05.388Z,85988.77
2019-03-19T01:19:35.209Z,86033.45
2019-03-19T01:22:05.018Z,86156.95
2019-03-19T01:24:34.751Z,86159.33
2019-03-19T01:27:06.130Z,86244.98
2019-03-19T01:29:35.965Z,86085.78
2019-03-19T01:32:05.726Z,85926.97
2019-03-19T01:34:35.556Z,85530.22
2019-03-19T01:37:06.225Z,85499.08
2019-03-19T01:39:35.959Z,85652.09
2019-03-19T01:42:05.765Z,85429.13
2019-03-19T01:44:35.555Z,85545.61
2019-03-19T01:47:05.699Z,85795.26
2019-03-19T01:49:35.601Z,85416.02
2019-03-19T01:52:05.470Z,85451.78
2019-03-19T01:54:35.257Z,85554.76
2019-03-19T01:57:05.059Z,85659.19
2019-03-19T01:59:34.898Z,85601.86
2019-03-19T02:02:04.684Z,85552.41
2019-03-19T02:04:34.486Z,85491.05
2019-03-19T02:07:04.284Z,85438.27
2019-03-19T02:09:34.036Z,85451.39
2019-03-19T02:12:03.850Z,85487.27
2019-03-19T02:14:33.674Z,85336.77
2019-03-19T02:17:03.465Z,85310.33
2019-03-19T02:19:33.322Z,84995.11
2019-03-19T02:22:03.177Z,84462.41
2019-03-19T02:24:32.958Z,84715.25
2019-03-19T02:27:02.644Z,84821.27
2019-03-19T02:29:32.491Z,84577.22
2019-03-19T02:32:02.260Z,84681.08
2019-03-19T02:34:32.063Z,84773.73
2019-03-19T02:37:01.845Z,84859.16
2019-03-19T02:39:31.587Z,84933.89
2019-03-19T02:42:01.376Z,84929.12
2019-03-19T02:44:31.189Z,84746.62
2019-03-19T02:47:00.938Z,84581.02
2019-03-19T02:49:30.743Z,84672.41
2019-03-19T02:52:00.574Z,84811.66
2019-03-19T02:54:30.344Z,84913.78
2019-03-19T02:57:00.161Z,84939.30
2019-03-19T02:59:30.011Z,84826.45
2019-03-19T03:01:59.852Z,84875.08
2019-03-19T03:04:29.637Z,84872.72
2019-03-19T03:06:59.453Z,84708.75
2019-03-19T03:09:29.356Z,84667.02
2019-03-19T03:11:59.164Z,84689.72
2019-03-19T03:14:29.048Z,84680.89
2019-03-19T03:16:58.868Z,84645.62
2019-03-19T03:19:28.616Z,84641.97
2019-03-19T03:21:58.459Z,84680.89
2019-03-19T03:24:28.217Z,84676.14
2019-03-19T03:26:57.968Z,84682.07
2019-03-19T03:29:27.779Z,84791.23
2019-03-19T03:31:57.584Z,84558.96
2019-03-19T03:34:27.529Z,84587.88
2019-03-19T03:36:57.490Z,84369.63
2019-03-19T03:39:27.256Z,84542.45
2019-03-19T03:41:57.059Z,84458.31
2019-03-19T03:44:26.887Z,84463.67
2019-03-19T03:46:56.751Z,84343.91
2019-03-19T03:49:26.555Z,84418.36
2019-03-19T03:51:56.476Z,84507.83
2019-03-19T03:54:26.292Z,84694.80
2019-03-19T03:57:01.736Z,84765.97
2019-03-19T03:59:27.598Z,84685.33
2019-03-19T04:01:57.391Z,84717.03
2019-03-19T04:04:27.173Z,84814.91
2019-03-19T04:06:56.998Z,84731.97
2019-03-19T04:09:26.858Z,84681.22
2019-03-19T04:11:57.851Z,84463.42
2019-03-19T04:14:27.644Z,84514.34
2019-03-19T04:16:57.467Z,84550.69
2019-03-19T04:19:28.313Z,84604.44
2019-03-19T04:21:58.057Z,84552.72
2019-03-19T04:24:27.860Z,83211.00
2019-03-19T04:26:57.633Z,84216.77
2019-03-19T04:29:27.437Z,84255.59
2019-03-19T04:31:57.244Z,84269.30
2019-03-19T04:34:26.998Z,84161.08
2019-03-19T04:36:56.795Z,84226.25
2019-03-19T04:39:26.686Z,84231.40
2019-03-19T04:41:56.493Z,84129.84
2019-03-19T04:44:27.874Z,84125.11
2019-03-19T04:46:57.686Z,84006.74
2019-03-19T04:49:27.372Z,83859.98
2019-03-19T04:51:57.109Z,83941.64
2019-03-19T04:54:26.845Z,84004.38
2019-03-19T04:56:56.635Z,84038.38
2019-03-19T04:59:26.506Z,84098.75
2019-03-19T05:01:56.356Z,84120.09
2019-03-19T05:04:26.157Z,84078.23
2019-03-19T05:06:55.905Z,84064.86
2019-03-19T05:09:25.777Z,84124.06
2019-03-19T05:11:55.567Z,84084.99
2019-03-19T05:14:25.363Z,84168.64
2019-03-19T05:16:55.208Z,84136.56
2019-03-19T05:19:24.975Z,84286.95
2019-03-19T05:21:54.793Z,84319.55
2019-03-19T05:24:24.603Z,84411.42
2019-03-19T05:26:54.416Z,84520.75
2019-03-19T05:29:24.186Z,84717.36
2019-03-19T05:31:53.980Z,84795.05
2019-03-19T05:34:23.792Z,84982.05
2019-03-19T05:36:53.572Z,85375.95
2019-03-19T05:39:23.390Z,86656.86
2019-03-19T05:41:53.169Z,87200.44
2019-03-19T05:44:22.934Z,86977.23
2019-03-19T05:46:53.663Z,88711.19
2019-03-19T05:49:23.410Z,88955.60
2019-03-19T05:51:53.219Z,89328.92
2019-03-19T05:54:23.027Z,89396.78
2019-03-19T05:56:52.788Z,89596.66
2019-03-19T05:59:22.547Z,88870.41
2019-03-19T06:01:52.316Z,87553.91
2019-03-19T06:04:22.022Z,86735.83
2019-03-19T06:06:51.871Z,86216.43
2019-03-19T06:09:21.686Z,86211.52
2019-03-19T06:11:51.560Z,86280.75
2019-03-19T06:14:21.355Z,86338.69
2019-03-19T06:16:51.187Z,86399.18
2019-03-19T06:19:20.934Z,86062.77
2019-03-19T06:21:50.710Z,86055.65
2019-03-19T06:24:20.622Z,85852.00
2019-03-19T06:26:50.329Z,86106.14
2019-03-19T06:29:20.402Z,86214.38
2019-03-19T06:31:50.275Z,86475.81
2019-03-19T06:34:20.043Z,86166.47
2019-03-19T06:36:49.829Z,86404.07
2019-03-19T06:39:19.851Z,86577.67
2019-03-19T06:41:49.913Z,86814.25
2019-03-19T06:44:19.835Z,86885.00
2019-03-19T06:46:49.569Z,87083.98
2019-03-19T06:49:19.304Z,87204.93
2019-03-19T06:51:49.091Z,87346.36
2019-03-19T06:54:18.891Z,87603.84
2019-03-19T06:56:48.675Z,87934.23
2019-03-19T06:59:18.356Z,87995.75
2019-03-19T07:01:48.139Z,88140.27
2019-03-19T07:04:20.197Z,88202.85
2019-03-19T07:06:49.978Z,88270.34
2019-03-19T07:09:19.653Z,88249.53
2019-03-19T07:11:49.479Z,88328.77
2019-03-19T07:14:19.229Z,88361.91
2019-03-19T07:16:49.052Z,87567.38
2019-03-19T07:19:18.812Z,88487.63
2019-03-19T07:21:48.577Z,88771.30
2019-03-19T07:24:18.441Z,88958.34
2019-03-19T07:26:48.118Z,89115.98
2019-03-19T07:29:17.810Z,89297.25
2019-03-19T07:31:48.430Z,89406.59
2019-03-19T07:34:18.292Z,89605.02
2019-03-19T07:36:48.351Z,89700.17
2019-03-19T07:39:18.170Z,89917.20
2019-03-19T07:41:47.949Z,90168.36
2019-03-19T07:44:17.779Z,90101.77
2019-03-19T07:46:49.332Z,90109.78
2019-03-19T07:49:19.154Z,90181.44
2019-03-19T07:51:48.941Z,90290.31
2019-03-19T07:54:18.814Z,90386.78
2019-03-19T07:56:48.619Z,90576.62
2019-03-19T07:59:18.617Z,90767.69
2019-03-19T08:01:49.189Z,90931.94
2019-03-19T08:04:19.010Z,91095.89
2019-03-19T08:06:48.837Z,91294.26
2019-03-19T08:09:19.574Z,91431.08
2019-03-19T08:11:49.395Z,91456.77
2019-03-19T08:14:19.191Z,91540.86
2019-03-19T08:16:49.129Z,91791.91
2019-03-19T08:19:18.982Z,91878.30
2019-03-19T08:21:48.940Z,91858.26
2019-03-19T08:24:19.483Z,91988.70
2019-03-19T08:26:49.638Z,91896.53
2019-03-19T08:29:20.292Z,91875.04
2019-03-19T08:31:50.097Z,91972.75
2019-03-19T08:34:20.879Z,92103.22
2019-03-19T08:36:50.776Z,92142.55
2019-03-19T08:39:20.915Z,92382.17
2019-03-19T08:41:50.838Z,92717.59
2019-03-19T08:44:27.651Z,92772.86
2019-03-19T08:46:52.338Z,92871.23
2019-03-19T08:49:22.432Z,93066.86
2019-03-19T08:51:52.601Z,93202.53
2019-03-19T08:54:22.420Z,93382.52
2019-03-19T08:56:52.776Z,93578.63
2019-03-19T08:59:22.555Z,93725.56
2019-03-19T09:01:52.375Z,93885.84
2019-03-19T09:04:22.493Z,93392.09
2019-03-19T09:06:52.289Z,93597.09
2019-03-19T09:09:22.132Z,93864.27
2019-03-19T09:11:51.911Z,94183.23
2019-03-19T09:14:21.733Z,94382.64
2019-03-19T09:16:51.599Z,94399.91
2019-03-19T09:19:21.394Z,94468.28
2019-03-19T09:21:51.151Z,94454.81
2019-03-19T09:24:21.031Z,94316.84
2019-03-19T09:26:50.794Z,94345.05
2019-03-19T09:29:20.626Z,94431.88
2019-03-19T09:31:53.670Z,94464.97
2019-03-19T09:34:23.479Z,94370.76
2019-03-19T09:36:57.399Z,94364.70
2019-03-19T09:39:24.834Z,94335.61
2019-03-19T09:41:54.638Z,94432.38
2019-03-19T09:44:24.436Z,94500.89
2019-03-19T09:46:54.228Z,94554.73
2019-03-19T09:49:24.025Z,94580.86
2019-03-19T09:51:53.810Z,94577.84
2019-03-19T09:54:23.641Z,94532.27
2019-03-19T09:56:53.482Z,94458.94
2019-03-19T09:59:27.059Z,94385.62
2019-03-19T10:01:54.757Z,94569.33
2019-03-19T10:04:24.539Z,94593.02
2019-03-19T10:06:54.455Z,94535.20
2019-03-19T10:09:24.299Z,94553.98
2019-03-19T10:11:54.033Z,94545.22
2019-03-19T10:14:23.779Z,94561.30
2019-03-19T10:16:53.615Z,94100.02
2019-03-19T10:19:23.431Z,94568.84
2019-03-19T10:21:53.195Z,94613.75
2019-03-19T10:24:23.054Z,94545.22
2019-03-19T10:26:52.861Z,94546.77
2019-03-19T10:29:22.840Z,94582.50
2019-03-19T10:31:52.619Z,94592.45
2019-03-19T10:34:22.381Z,94626.03
2019-03-19T10:36:52.132Z,94689.97
2019-03-19T10:39:24.919Z,94726.20
2019-03-19T10:41:54.880Z,94743.84
2019-03-19T10:44:24.685Z,94864.47
2019-03-19T10:46:54.277Z,94910.16
2019-03-19T10:49:24.200Z,94974.78
2019-03-19T10:51:53.999Z,95052.66
2019-03-19T10:54:23.920Z,94940.45
2019-03-19T10:56:54.041Z,94936.99
2019-03-19T10:59:23.833Z,95022.13
2019-03-19T11:01:54.725Z,95007.75
2019-03-19T11:04:24.532Z,94966.25
2019-03-19T11:06:56.756Z,94935.83
2019-03-19T11:09:26.572Z,94933.17
2019-03-19T11:11:56.791Z,95023.30
2019-03-19T11:14:26.612Z,94951.48
2019-03-19T11:16:57.412Z,94890.45
2019-03-19T11:19:30.436Z,94854.63
2019-03-19T11:22:00.420Z,94605.98
2019-03-19T11:24:30.230Z,94557.80
2019-03-19T11:27:00.056Z,94530.49
2019-03-19T11:29:29.812Z,94414.55
2019-03-19T11:31:59.613Z,94448.48
2019-03-19T11:34:31.741Z,94427.08
2019-03-19T11:37:01.551Z,94338.44
2019-03-19T11:39:31.411Z,94329.95
2019-03-19T11:42:01.509Z,93505.30
2019-03-19T11:44:31.315Z,94430.34
2019-03-19T11:47:01.240Z,94514.19
2019-03-19T11:49:31.138Z,94578.70
2019-03-19T11:52:00.924Z,94671.48
2019-03-19T11:54:30.755Z,94677.36
2019-03-19T11:57:00.562Z,94602.48
2019-03-19T11:59:30.315Z,94415.67
2019-03-19T12:02:03.232Z,94625.41
2019-03-19T12:04:33.179Z,94813.45
2019-03-19T12:07:02.985Z,94854.17
2019-03-19T12:09:32.849Z,94813.89
2019-03-19T12:12:02.640Z,94792.22
2019-03-19T12:14:32.438Z,94744.09
2019-03-19T12:17:02.236Z,94783.36
2019-03-19T12:19:32.058Z,94625.82
2019-03-19T12:22:01.858Z,94677.22
2019-03-19T12:24:33.331Z,94778.11
2019-03-19T12:27:03.111Z,94838.70
2019-03-19T12:29:32.913Z,94923.77
2019-03-19T12:32:05.146Z,94921.91
2019-03-19T12:34:34.919Z,94962.64
2019-03-19T12:37:04.872Z,94974.67
2019-03-19T12:39:34.695Z,94865.16
2019-03-19T12:42:05.411Z,94845.25
2019-03-19T12:44:35.199Z,94877.11
2019-03-19T12:47:05.121Z,94720.08
2019-03-19T12:49:34.878Z,94571.30
2019-03-19T12:52:05.136Z,94608.91
2019-03-19T12:54:34.983Z,94573.70
2019-03-19T12:57:07.120Z,94524.23
2019-03-19T12:59:37.809Z,94465.59
2019-03-19T13:02:07.617Z,94426.17
2019-03-19T13:04:37.772Z,94421.90
2019-03-19T13:07:08.018Z,94397.44
2019-03-19T13:09:37.981Z,94417.62
2019-03-19T13:12:09.494Z,94447.64
2019-03-19T13:14:39.301Z,94544.50
2019-03-19T13:17:11.771Z,94596.60
2019-03-19T13:19:41.664Z,94629.06
2019-03-19T13:22:12.561Z,94632.73
2019-03-19T13:24:42.583Z,94251.99
2019-03-19T13:27:12.734Z,94605.13
2019-03-19T13:29:42.976Z,94645.79
2019-03-19T13:32:12.867Z,94652.74
2019-03-19T13:34:42.636Z,94701.43
2019-03-19T13:37:12.440Z,94774.05
2019-03-19T13:39:42.274Z,94765.16
2019-03-19T13:42:12.199Z,94731.94
2019-03-19T13:44:42.132Z,94731.75
2019-03-19T13:47:12.596Z,94672.44
2019-03-19T13:49:43.570Z,94607.00
2019-03-19T13:52:13.431Z,94577.88
2019-03-19T13:54:45.356Z,94590.06
2019-03-19T13:57:15.181Z,94572.04
2019-03-19T13:59:44.941Z,94540.16
2019-03-19T14:02:14.817Z,94527.61
2019-03-19T14:04:44.571Z,94562.27
2019-03-19T14:07:14.384Z,94540.09
2019-03-19T14:09:44.275Z,94427.20
2019-03-19T14:12:14.066Z,94251.00
2019-03-19T14:14:43.886Z,94339.11
2019-03-19T14:17:14.049Z,94368.41
2019-03-19T14:19:45.559Z,94452.97
2019-03-19T14:22:15.381Z,94522.08
2019-03-19T14:24:45.222Z,94642.13
2019-03-19T14:27:15.044Z,94724.81
2019-03-19T14:29:44.841Z,94406.52
2019-03-19T14:32:14.671Z,94326.72
2019-03-19T14:34:44.463Z,94389.22
2019-03-19T14:37:14.229Z,94308.27
2019-03-19T14:39:44.058Z,94135.42
2019-03-19T14:42:13.869Z,94060.08
2019-03-19T14:44:43.638Z,94108.84
2019-03-19T14:47:13.473Z,94107.25
2019-03-19T14:49:47.741Z,93979.45
2019-03-19T14:52:14.774Z,93942.88
2019-03-19T14:54:44.399Z,93869.45
2019-03-19T14:57:14.159Z,93820.26
2019-03-19T14:59:43.939Z,93749.19
2019-03-19T15:02:14.781Z,93745.30
2019-03-19T15:04:44.588Z,93597.91
2019-03-19T15:07:14.395Z,93555.25
2019-03-19T15:09:44.252Z,93527.57
2019-03-19T15:12:14.078Z,93506.94
2019-03-19T15:14:44.349Z,93482.13
2019-03-19T15:17:14.926Z,93620.11
2019-03-19T15:19:44.751Z,93438.44
2019-03-19T15:22:14.555Z,93481.41
2019-03-19T15:24:44.449Z,93371.11
2019-03-19T15:27:14.280Z,93244.79
2019-03-19T15:29:45.699Z,92583.97
2019-03-19T15:32:15.577Z,91896.47
2019-03-19T15:34:45.403Z,91471.27
2019-03-19T15:37:15.481Z,91537.58
2019-03-19T15:39:45.349Z,91109.88
2019-03-19T15:42:15.213Z,90902.63
2019-03-19T15:44:45.036Z,90994.57
2019-03-19T15:47:14.836Z,91165.13
2019-03-19T15:49:44.679Z,91166.37
2019-03-19T15:52:14.503Z,91469.12
2019-03-19T15:54:44.403Z,91397.59
2019-03-19T15:57:14.208Z,91353.91
2019-03-19T15:59:44.043Z,91470.59
2019-03-19T16:02:13.837Z,91417.91
2019-03-19T16:04:43.564Z,91359.45
2019-03-19T16:07:13.437Z,91335.13
2019-03-19T16:09:43.234Z,91281.61
2019-03-19T16:12:13.053Z,91150.23
2019-03-19T16:14:42.862Z,91285.30
2019-03-19T16:17:12.740Z,91325.30
2019-03-19T16:19:42.571Z,91325.98
2019-03-19T16:22:13.664Z,91464.99
2019-03-19T16:24:43.518Z,91529.62
2019-03-19T16:27:13.349Z,91521.03
2019-03-19T16:29:43.216Z,91630.50
2019-03-19T16:32:13.029Z,91640.55
2019-03-19T16:34:42.860Z,91584.84
2019-03-19T16:37:13.295Z,91474.45
2019-03-19T16:39:43.147Z,91551.70
2019-03-19T16:42:12.972Z,91685.81
2019-03-19T16:44:42.820Z,91602.52
2019-03-19T16:47:12.643Z,91638.23
2019-03-19T16:49:42.448Z,91705.39
2019-03-19T16:52:12.333Z,91668.83
2019-03-19T16:54:42.234Z,91521.34
2019-03-19T16:57:13.618Z,91353.73
2019-03-19T16:59:43.447Z,91213.67
2019-03-19T17:02:13.336Z,91115.15
2019-03-19T17:04:43.174Z,90918.16
2019-03-19T17:07:12.988Z,90788.97
2019-03-19T17:09:42.854Z,90618.14
2019-03-19T17:12:12.703Z,90551.51
2019-03-19T17:14:42.512Z,90391.77
2019-03-19T17:17:12.341Z,90321.91
2019-03-19T17:19:42.173Z,90694.45
2019-03-19T17:22:11.980Z,92332.95
2019-03-19T17:24:41.860Z,91705.89
2019-03-19T17:27:11.683Z,91288.64
2019-03-19T17:29:41.541Z,90887.28
2019-03-19T17:32:13.297Z,90604.60
2019-03-19T17:34:42.957Z,90341.11
2019-03-19T17:37:13.231Z,90151.39
2019-03-19T17:39:43.600Z,89999.43
2019-03-19T17:42:13.404Z,89902.92
2019-03-19T17:44:43.214Z,89800.52
2019-03-19T17:47:13.032Z,89770.55
2019-03-19T17:49:42.870Z,89700.24
2019-03-19T17:52:12.732Z,89626.37
2019-03-19T17:54:42.532Z,89496.59
2019-03-19T17:57:12.540Z,89432.73
2019-03-19T17:59:42.418Z,89278.53
2019-03-19T18:02:23.315Z,88922.98
2019-03-19T18:04:43.846Z,88928.20
2019-03-19T18:07:13.665Z,88662.63
2019-03-19T18:09:43.519Z,88746.17
2019-03-19T18:12:13.405Z,88566.70
2019-03-19T18:14:43.147Z,88486.97
2019-03-19T18:17:13.442Z,88426.08
2019-03-19T18:19:43.300Z,88438.66
2019-03-19T18:22:13.171Z,88480.06
2019-03-19T18:24:42.998Z,89620.00
2019-03-19T18:27:12.935Z,91600.58
2019-03-19T18:29:42.803Z,91353.59
2019-03-19T18:32:12.581Z,90575.88
2019-03-19T18:34:42.457Z,90107.95
2019-03-19T18:37:12.279Z,89768.74
2019-03-19T18:39:42.122Z,89485.88
2019-03-19T18:42:11.931Z,89233.23
2019-03-19T18:44:41.754Z,89165.95
2019-03-19T18:47:12.270Z,89045.61
2019-03-19T18:49:42.156Z,88987.08
2019-03-19T18:52:11.990Z,88838.42
2019-03-19T18:54:41.782Z,88731.48
2019-03-19T18:57:11.597Z,88733.11
2019-03-19T18:59:41.489Z,88609.84
2019-03-19T19:02:11.347Z,88584.86
2019-03-19T19:04:41.196Z,88496.97
2019-03-19T19:07:13.715Z,88409.95
2019-03-19T19:09:44.583Z,88340.20
2019-03-19T19:12:14.398Z,88286.84
2019-03-19T19:14:44.512Z,88334.00
2019-03-19T19:17:14.295Z,88196.83
2019-03-19T19:19:44.116Z,88152.22
2019-03-19T19:22:13.965Z,88222.55
2019-03-19T19:24:43.811Z,88337.27
2019-03-19T19:27:13.682Z,88432.92
2019-03-19T19:29:43.579Z,88495.00
2019-03-19T19:32:13.440Z,88492.64
2019-03-19T19:34:43.316Z,88476.86
2019-03-19T19:37:13.111Z,88584.15
2019-03-19T19:39:44.558Z,88939.38
2019-03-19T19:42:14.369Z,88824.65
2019-03-19T19:44:44.306Z,88886.48
2019-03-19T19:47:14.219Z,89036.81
2019-03-19T19:49:44.036Z,88992.09
2019-03-19T19:52:14.807Z,88927.16
2019-03-19T19:54:44.680Z,88901.51
2019-03-19T19:57:14.515Z,88942.94
2019-03-19T19:59:44.305Z,88918.46
2019-03-19T20:02:14.189Z,88914.12
2019-03-19T20:04:43.978Z,88867.80
2019-03-19T20:07:13.844Z,88762.44
2019-03-19T20:09:43.640Z,88824.50
2019-03-19T20:12:13.546Z,88769.97
2019-03-19T20:14:43.399Z,88745.89
2019-03-19T20:17:13.220Z,88724.34
2019-03-19T20:19:43.059Z,88752.73
2019-03-19T20:22:12.919Z,88756.28
2019-03-19T20:24:42.736Z,88741.17
2019-03-19T20:27:12.628Z,88672.36
2019-03-19T20:29:44.011Z,88716.41
2019-03-19T20:32:13.821Z,88831.09
2019-03-19T20:34:43.648Z,88909.23
2019-03-19T20:37:13.520Z,88863.61
2019-03-19T20:39:43.347Z,88873.50
2019-03-19T20:42:13.213Z,88875.52
2019-03-19T20:44:43.039Z,88905.65
2019-03-19T20:47:12.898Z,88923.44
2019-03-19T20:49:47.620Z,88874.19
2019-03-19T20:52:14.270Z,88932.13
2019-03-19T20:54:44.177Z,88969.70
2019-03-19T20:57:13.974Z,88924.91
2019-03-19T20:59:43.848Z,88955.79
2019-03-19T21:02:13.940Z,88941.13
2019-03-19T21:04:44.021Z,88977.12
2019-03-19T21:07:14.221Z,88939.12
2019-03-19T21:09:44.032Z,88980.32
2019-03-19T21:12:13.897Z,89057.23
2019-03-19T21:14:43.757Z,89054.89
2019-03-19T21:17:14.570Z,89113.86
2019-03-19T21:19:44.444Z,89104.77
2019-03-19T21:22:14.313Z,89153.08
2019-03-19T21:24:44.144Z,89170.66
2019-03-19T21:27:13.953Z,88891.52
2019-03-19T21:29:43.815Z,88862.73
2019-03-19T21:32:13.635Z,88940.75
2019-03-19T21:34:43.452Z,88858.16
2019-03-19T21:37:13.295Z,88958.17
2019-03-19T21:39:43.092Z,89047.77
2019-03-19T21:42:12.939Z,89037.87
2019-03-19T21:44:42.767Z,89082.11
2019-03-19T21:47:12.586Z,89057.64
2019-03-19T21:49:45.032Z,89123.45
2019-03-19T21:52:14.083Z,89110.46
2019-03-19T21:54:43.971Z,89154.49
2019-03-19T21:57:13.785Z,89175.69
2019-03-19T21:59:43.628Z,89272.66
2019-03-19T22:02:13.408Z,89208.94
2019-03-19T22:04:43.245Z,89217.98
2019-03-19T22:07:13.062Z,89219.59
2019-03-19T22:09:43.821Z,89030.62
2019-03-19T22:12:13.745Z,88954.22
2019-03-19T22:14:43.523Z,88948.30
2019-03-19T22:17:13.344Z,88840.31
2019-03-19T22:19:43.157Z,88863.58
2019-03-19T22:22:12.995Z,89140.46
2019-03-19T22:24:42.823Z,89204.61
2019-03-19T22:27:12.623Z,88931.64
2019-03-19T22:29:42.472Z,88796.89
2019-03-19T22:32:12.289Z,88765.36
2019-03-19T22:34:42.235Z,88766.30
2019-03-19T22:37:12.095Z,88750.83
2019-03-19T22:39:42.782Z,88711.13
2019-03-19T22:42:13.655Z,88644.88
2019-03-19T22:44:43.483Z,88679.50
2019-03-19T22:47:13.265Z,88664.69
2019-03-19T22:49:43.972Z,88620.63
2019-03-19T22:52:13.750Z,88623.64
2019-03-19T22:54:43.576Z,88688.02
2019-03-19T22:57:13.409Z,88726.64
2019-03-19T22:59:43.184Z,88781.59
2019-03-19T23:02:13.037Z,88767.29
2019-03-19T23:04:42.864Z,88650.86
2019-03-19T23:07:12.606Z,88655.59
2019-03-19T23:09:42.329Z,88631.06
2019-03-19T23:12:12.205Z,88600.80
2019-03-19T23:14:41.982Z,88578.75
2019-03-19T23:17:11.814Z,88674.79
2019-03-19T23:19:41.570Z,88705.56
2019-03-19T23:22:11.435Z,88789.78
2019-03-19T23:24:41.161Z,88678.34
2019-03-19T23:27:10.980Z,88573.66
2019-03-19T23:29:40.796Z,88597.11
2019-03-19T23:32:10.545Z,88615.20
2019-03-19T23:34:40.397Z,88591.40
2019-03-19T23:37:10.182Z,88597.70
2019-03-19T23:39:40.042Z,88583.72
2019-03-19T23:42:09.889Z,88566.94
2019-03-19T23:44:39.689Z,88461.87
2019-03-19T23:47:09.415Z,88441.19
2019-03-19T23:49:39.226Z,88509.53
2019-03-19T23:52:09.046Z,88549.94
2019-03-19T23:54:38.843Z,88604.44
2019-03-19T23:57:08.670Z,88528.91
2019-03-19T23:59:38.459Z,88599.30
